sensor_id;sensor_type;location;lat;lon;timestamp;P1;durP1;ratioP1;P2;durP2;ratioP2
3633;SDS011;1833;42.718;23.270;2023-04-01T00:01:12;66.20;;;39.60;;
3633;SDS011;1833;42.718;23.270;2023-04-01T00:03:41;59.57;;;38.47;;
3633;SDS011;1833;42.718;23.270;2023-04-01T00:06:09;54.43;;;37.80;;
3633;SDS011;1833;42.718;23.270;2023-04-01T00:08:36;43.97;;;34.87;;
3633;SDS011;1833;42.718;23.270;2023-04-01T00:11:03;53.43;;;37.07;;
3633;SDS011;1833;42.718;23.270;2023-04-01T00:13:32;60.93;;;36.73;;
3633;SDS011;1833;42.718;23.270;2023-04-01T00:15:59;47.23;;;35.50;;
3633;SDS011;1833;42.718;23.270;2023-04-01T00:18:28;41.83;;;35.53;;
3633;SDS011;1833;42.718;23.270;2023-04-01T00:20:55;47.10;;;33.87;;
3633;SDS011;1833;42.718;23.270;2023-04-01T00:23:22;46.43;;;35.50;;
3633;SDS011;1833;42.718;23.270;2023-04-01T00:25:50;40.67;;;36.17;;
3633;SDS011;1833;42.718;23.270;2023-04-01T00:28:17;49.57;;;36.93;;
3633;SDS011;1833;42.718;23.270;2023-04-01T00:30:46;42.67;;;35.10;;
3633;SDS011;1833;42.718;23.270;2023-04-01T00:33:14;41.17;;;34.37;;
3633;SDS011;1833;42.718;23.270;2023-04-01T00:35:42;45.43;;;36.40;;
3633;SDS011;1833;42.718;23.270;2023-04-01T00:38:09;43.00;;;35.90;;
3633;SDS011;1833;42.718;23.270;2023-04-01T00:40:38;36.67;;;32.53;;
3633;SDS011;1833;42.718;23.270;2023-04-01T00:43:09;51.13;;;35.40;;
3633;SDS011;1833;42.718;23.270;2023-04-01T00:45:37;38.87;;;33.80;;
3633;SDS011;1833;42.718;23.270;2023-04-01T00:48:08;37.97;;;34.00;;
3633;SDS011;1833;42.718;23.270;2023-04-01T00:50:36;39.33;;;34.03;;
3633;SDS011;1833;42.718;23.270;2023-04-01T00:53:05;40.80;;;33.97;;
3633;SDS011;1833;42.718;23.270;2023-04-01T00:55:35;50.43;;;42.23;;
3633;SDS011;1833;42.718;23.270;2023-04-01T00:58:03;50.33;;;41.03;;
3633;SDS011;1833;42.718;23.270;2023-04-01T01:00:32;50.23;;;41.23;;
3633;SDS011;1833;42.718;23.270;2023-04-01T01:02:59;50.07;;;37.03;;
3633;SDS011;1833;42.718;23.270;2023-04-01T01:05:32;43.13;;;34.87;;
3633;SDS011;1833;42.718;23.270;2023-04-01T01:08:03;44.20;;;34.43;;
3633;SDS011;1833;42.718;23.270;2023-04-01T01:10:35;40.13;;;31.40;;
3633;SDS011;1833;42.718;23.270;2023-04-01T01:13:08;39.90;;;32.07;;
3633;SDS011;1833;42.718;23.270;2023-04-01T01:15:39;38.80;;;32.57;;
3633;SDS011;1833;42.718;23.270;2023-04-01T01:18:10;34.87;;;31.13;;
3633;SDS011;1833;42.718;23.270;2023-04-01T01:20:49;34.77;;;31.03;;
3633;SDS011;1833;42.718;23.270;2023-04-01T01:23:23;34.30;;;30.70;;
3633;SDS011;1833;42.718;23.270;2023-04-01T01:25:59;33.30;;;30.07;;
3633;SDS011;1833;42.718;23.270;2023-04-01T01:28:37;36.77;;;29.90;;
3633;SDS011;1833;42.718;23.270;2023-04-01T01:31:14;37.63;;;29.67;;
3633;SDS011;1833;42.718;23.270;2023-04-01T01:33:48;36.37;;;30.00;;
3633;SDS011;1833;42.718;23.270;2023-04-01T01:36:20;43.87;;;29.90;;
3633;SDS011;1833;42.718;23.270;2023-04-01T01:38:48;36.73;;;30.00;;
3633;SDS011;1833;42.718;23.270;2023-04-01T01:41:17;32.40;;;29.03;;
3633;SDS011;1833;42.718;23.270;2023-04-01T01:43:46;37.90;;;32.57;;
3633;SDS011;1833;42.718;23.270;2023-04-01T01:46:16;31.67;;;28.27;;
3633;SDS011;1833;42.718;23.270;2023-04-01T01:48:45;33.03;;;29.70;;
3633;SDS011;1833;42.718;23.270;2023-04-01T01:51:13;35.57;;;28.63;;
3633;SDS011;1833;42.718;23.270;2023-04-01T01:53:43;37.13;;;28.73;;
3633;SDS011;1833;42.718;23.270;2023-04-01T01:56:10;34.40;;;31.00;;
3633;SDS011;1833;42.718;23.270;2023-04-01T01:58:39;33.13;;;28.43;;
3633;SDS011;1833;42.718;23.270;2023-04-01T02:01:09;31.07;;;27.77;;
3633;SDS011;1833;42.718;23.270;2023-04-01T02:03:37;42.70;;;29.83;;
3633;SDS011;1833;42.718;23.270;2023-04-01T02:06:07;35.30;;;30.07;;
3633;SDS011;1833;42.718;23.270;2023-04-01T02:08:36;32.23;;;28.93;;
3633;SDS011;1833;42.718;23.270;2023-04-01T02:11:07;31.43;;;28.40;;
3633;SDS011;1833;42.718;23.270;2023-04-01T02:13:36;31.77;;;28.50;;
3633;SDS011;1833;42.718;23.270;2023-04-01T02:16:06;29.73;;;26.63;;
3633;SDS011;1833;42.718;23.270;2023-04-01T02:18:34;31.13;;;27.97;;
3633;SDS011;1833;42.718;23.270;2023-04-01T02:21:02;28.90;;;25.73;;
3633;SDS011;1833;42.718;23.270;2023-04-01T02:23:35;30.80;;;27.47;;
3633;SDS011;1833;42.718;23.270;2023-04-01T02:26:03;34.10;;;27.27;;
3633;SDS011;1833;42.718;23.270;2023-04-01T02:28:32;35.60;;;29.70;;
3633;SDS011;1833;42.718;23.270;2023-04-01T02:31:00;38.80;;;31.17;;
3633;SDS011;1833;42.718;23.270;2023-04-01T02:33:28;38.53;;;31.03;;
3633;SDS011;1833;42.718;23.270;2023-04-01T02:35:55;43.10;;;37.30;;
3633;SDS011;1833;42.718;23.270;2023-04-01T02:38:22;49.90;;;38.93;;
3633;SDS011;1833;42.718;23.270;2023-04-01T02:40:51;77.53;;;49.43;;
3633;SDS011;1833;42.718;23.270;2023-04-01T02:43:18;83.23;;;53.20;;
3633;SDS011;1833;42.718;23.270;2023-04-01T02:45:47;78.60;;;47.60;;
3633;SDS011;1833;42.718;23.270;2023-04-01T02:48:15;53.03;;;40.80;;
3633;SDS011;1833;42.718;23.270;2023-04-01T02:50:42;48.03;;;40.27;;
3633;SDS011;1833;42.718;23.270;2023-04-01T02:53:09;56.17;;;39.03;;
3633;SDS011;1833;42.718;23.270;2023-04-01T02:55:37;44.87;;;38.47;;
3633;SDS011;1833;42.718;23.270;2023-04-01T02:58:04;49.47;;;37.10;;
3633;SDS011;1833;42.718;23.270;2023-04-01T03:00:31;50.87;;;36.37;;
3633;SDS011;1833;42.718;23.270;2023-04-01T03:03:00;41.70;;;36.43;;
3633;SDS011;1833;42.718;23.270;2023-04-01T03:05:27;46.57;;;36.83;;
3633;SDS011;1833;42.718;23.270;2023-04-01T03:07:55;39.17;;;34.97;;
3633;SDS011;1833;42.718;23.270;2023-04-01T03:10:22;44.10;;;34.60;;
3633;SDS011;1833;42.718;23.270;2023-04-01T03:12:50;44.13;;;37.20;;
3633;SDS011;1833;42.718;23.270;2023-04-01T03:15:17;44.43;;;35.50;;
3633;SDS011;1833;42.718;23.270;2023-04-01T03:17:44;46.33;;;34.80;;
3633;SDS011;1833;42.718;23.270;2023-04-01T03:20:14;38.47;;;33.03;;
3633;SDS011;1833;42.718;23.270;2023-04-01T03:22:42;37.77;;;33.53;;
3633;SDS011;1833;42.718;23.270;2023-04-01T03:25:09;40.03;;;33.20;;
3633;SDS011;1833;42.718;23.270;2023-04-01T03:27:36;51.33;;;32.53;;
3633;SDS011;1833;42.718;23.270;2023-04-01T03:30:04;47.60;;;31.67;;
3633;SDS011;1833;42.718;23.270;2023-04-01T03:32:32;38.23;;;34.17;;
3633;SDS011;1833;42.718;23.270;2023-04-01T03:35:00;39.10;;;31.57;;
3633;SDS011;1833;42.718;23.270;2023-04-01T03:37:28;35.13;;;31.40;;
3633;SDS011;1833;42.718;23.270;2023-04-01T03:39:56;33.80;;;30.40;;
3633;SDS011;1833;42.718;23.270;2023-04-01T03:42:23;34.63;;;31.07;;
3633;SDS011;1833;42.718;23.270;2023-04-01T03:44:50;36.00;;;32.23;;
3633;SDS011;1833;42.718;23.270;2023-04-01T03:47:19;35.77;;;32.00;;
3633;SDS011;1833;42.718;23.270;2023-04-01T03:49:46;34.10;;;30.63;;
3633;SDS011;1833;42.718;23.270;2023-04-01T03:52:14;36.03;;;32.27;;
3633;SDS011;1833;42.718;23.270;2023-04-01T03:54:43;36.47;;;32.87;;
3633;SDS011;1833;42.718;23.270;2023-04-01T03:57:10;35.63;;;31.87;;
3633;SDS011;1833;42.718;23.270;2023-04-01T03:59:37;41.10;;;32.33;;
3633;SDS011;1833;42.718;23.270;2023-04-01T04:02:05;33.60;;;30.07;;
3633;SDS011;1833;42.718;23.270;2023-04-01T04:04:32;33.30;;;29.70;;
3633;SDS011;1833;42.718;23.270;2023-04-01T04:06:59;31.70;;;28.10;;
3633;SDS011;1833;42.718;23.270;2023-04-01T04:09:26;33.27;;;29.33;;
3633;SDS011;1833;42.718;23.270;2023-04-01T04:11:55;33.87;;;30.50;;
3633;SDS011;1833;42.718;23.270;2023-04-01T04:14:23;32.63;;;29.50;;
3633;SDS011;1833;42.718;23.270;2023-04-01T04:16:50;31.80;;;28.40;;
3633;SDS011;1833;42.718;23.270;2023-04-01T04:19:17;31.73;;;28.30;;
3633;SDS011;1833;42.718;23.270;2023-04-01T04:21:45;32.57;;;29.20;;
3633;SDS011;1833;42.718;23.270;2023-04-01T04:24:12;35.00;;;30.60;;
3633;SDS011;1833;42.718;23.270;2023-04-01T04:26:39;31.90;;;28.87;;
3633;SDS011;1833;42.718;23.270;2023-04-01T04:29:08;36.40;;;32.03;;
3633;SDS011;1833;42.718;23.270;2023-04-01T04:31:35;38.23;;;33.17;;
3633;SDS011;1833;42.718;23.270;2023-04-01T04:34:03;37.57;;;30.00;;
3633;SDS011;1833;42.718;23.270;2023-04-01T04:36:30;32.83;;;29.63;;
3633;SDS011;1833;42.718;23.270;2023-04-01T04:38:57;30.80;;;27.80;;
3633;SDS011;1833;42.718;23.270;2023-04-01T04:41:27;37.17;;;31.13;;
3633;SDS011;1833;42.718;23.270;2023-04-01T04:43:54;33.30;;;29.87;;
3633;SDS011;1833;42.718;23.270;2023-04-01T04:46:25;32.73;;;29.43;;
3633;SDS011;1833;42.718;23.270;2023-04-01T04:48:52;31.17;;;28.17;;
3633;SDS011;1833;42.718;23.270;2023-04-01T04:51:19;33.60;;;28.70;;
3633;SDS011;1833;42.718;23.270;2023-04-01T04:53:47;31.30;;;27.87;;
3633;SDS011;1833;42.718;23.270;2023-04-01T04:56:17;38.00;;;29.13;;
3633;SDS011;1833;42.718;23.270;2023-04-01T04:58:44;31.60;;;27.87;;
3633;SDS011;1833;42.718;23.270;2023-04-01T05:01:12;28.17;;;25.50;;
3633;SDS011;1833;42.718;23.270;2023-04-01T05:03:42;31.10;;;28.20;;
3633;SDS011;1833;42.718;23.270;2023-04-01T05:06:11;29.07;;;26.10;;
3633;SDS011;1833;42.718;23.270;2023-04-01T05:08:39;29.80;;;26.67;;
3633;SDS011;1833;42.718;23.270;2023-04-01T05:11:07;29.70;;;26.13;;
3633;SDS011;1833;42.718;23.270;2023-04-01T05:13:35;28.87;;;26.13;;
3633;SDS011;1833;42.718;23.270;2023-04-01T05:16:02;27.97;;;25.37;;
3633;SDS011;1833;42.718;23.270;2023-04-01T05:18:30;30.53;;;27.33;;
3633;SDS011;1833;42.718;23.270;2023-04-01T05:20:59;31.33;;;27.80;;
3633;SDS011;1833;42.718;23.270;2023-04-01T05:23:27;29.70;;;26.60;;
3633;SDS011;1833;42.718;23.270;2023-04-01T05:25:55;29.90;;;26.80;;
3633;SDS011;1833;42.718;23.270;2023-04-01T05:28:22;30.67;;;27.30;;
3633;SDS011;1833;42.718;23.270;2023-04-01T05:30:50;31.07;;;27.93;;
3633;SDS011;1833;42.718;23.270;2023-04-01T05:33:17;34.33;;;27.03;;
3633;SDS011;1833;42.718;23.270;2023-04-01T05:35:44;39.00;;;32.53;;
3633;SDS011;1833;42.718;23.270;2023-04-01T05:38:14;35.93;;;32.37;;
3633;SDS011;1833;42.718;23.270;2023-04-01T05:40:41;34.43;;;30.90;;
3633;SDS011;1833;42.718;23.270;2023-04-01T05:43:10;36.73;;;30.37;;
3633;SDS011;1833;42.718;23.270;2023-04-01T05:45:40;46.93;;;31.53;;
3633;SDS011;1833;42.718;23.270;2023-04-01T05:48:07;32.70;;;29.50;;
3633;SDS011;1833;42.718;23.270;2023-04-01T05:50:34;33.40;;;29.80;;
3633;SDS011;1833;42.718;23.270;2023-04-01T05:53:02;42.47;;;30.33;;
3633;SDS011;1833;42.718;23.270;2023-04-01T05:55:31;35.53;;;30.73;;
3633;SDS011;1833;42.718;23.270;2023-04-01T05:57:58;35.80;;;29.93;;
3633;SDS011;1833;42.718;23.270;2023-04-01T06:00:26;40.53;;;30.27;;
3633;SDS011;1833;42.718;23.270;2023-04-01T06:02:53;34.20;;;30.53;;
3633;SDS011;1833;42.718;23.270;2023-04-01T06:05:22;35.37;;;31.23;;
3633;SDS011;1833;42.718;23.270;2023-04-01T06:07:50;37.63;;;31.47;;
3633;SDS011;1833;42.718;23.270;2023-04-01T06:10:18;41.47;;;32.73;;
3633;SDS011;1833;42.718;23.270;2023-04-01T06:12:51;40.57;;;34.50;;
3633;SDS011;1833;42.718;23.270;2023-04-01T06:15:25;35.60;;;32.00;;
3633;SDS011;1833;42.718;23.270;2023-04-01T06:20:47;31.60;;;28.10;;
3633;SDS011;1833;42.718;23.270;2023-04-01T06:23:23;33.90;;;30.23;;
3633;SDS011;1833;42.718;23.270;2023-04-01T06:25:59;33.30;;;29.07;;
3633;SDS011;1833;42.718;23.270;2023-04-01T06:28:37;32.07;;;28.90;;
3633;SDS011;1833;42.718;23.270;2023-04-01T06:31:10;33.50;;;28.67;;
3633;SDS011;1833;42.718;23.270;2023-04-01T06:33:46;36.17;;;28.13;;
3633;SDS011;1833;42.718;23.270;2023-04-01T06:36:37;30.70;;;27.77;;
3633;SDS011;1833;42.718;23.270;2023-04-01T06:39:08;34.83;;;29.53;;
3633;SDS011;1833;42.718;23.270;2023-04-01T06:41:43;31.70;;;28.37;;
3633;SDS011;1833;42.718;23.270;2023-04-01T06:44:16;32.73;;;28.93;;
3633;SDS011;1833;42.718;23.270;2023-04-01T06:46:45;39.33;;;30.00;;
3633;SDS011;1833;42.718;23.270;2023-04-01T06:49:22;33.23;;;29.67;;
3633;SDS011;1833;42.718;23.270;2023-04-01T06:51:54;33.47;;;29.93;;
3633;SDS011;1833;42.718;23.270;2023-04-01T06:54:28;43.40;;;28.83;;
3633;SDS011;1833;42.718;23.270;2023-04-01T06:57:00;31.60;;;28.23;;
3633;SDS011;1833;42.718;23.270;2023-04-01T06:59:32;30.77;;;27.67;;
3633;SDS011;1833;42.718;23.270;2023-04-01T07:02:01;30.60;;;27.67;;
3633;SDS011;1833;42.718;23.270;2023-04-01T07:04:31;30.37;;;27.53;;
3633;SDS011;1833;42.718;23.270;2023-04-01T07:07:01;30.90;;;27.90;;
3633;SDS011;1833;42.718;23.270;2023-04-01T07:09:31;31.63;;;27.57;;
3633;SDS011;1833;42.718;23.270;2023-04-01T07:12:01;30.10;;;26.90;;
3633;SDS011;1833;42.718;23.270;2023-04-01T07:14:30;31.13;;;27.43;;
3633;SDS011;1833;42.718;23.270;2023-04-01T07:17:02;29.20;;;26.00;;
3633;SDS011;1833;42.718;23.270;2023-04-01T07:19:33;29.37;;;26.50;;
3633;SDS011;1833;42.718;23.270;2023-04-01T07:22:03;29.67;;;26.90;;
3633;SDS011;1833;42.718;23.270;2023-04-01T07:24:32;33.83;;;27.23;;
3633;SDS011;1833;42.718;23.270;2023-04-01T07:27:00;31.67;;;27.43;;
3633;SDS011;1833;42.718;23.270;2023-04-01T07:29:27;29.80;;;26.90;;
3633;SDS011;1833;42.718;23.270;2023-04-01T07:34:44;34.83;;;27.87;;
3633;SDS011;1833;42.718;23.270;2023-04-01T07:37:15;31.70;;;28.47;;
3633;SDS011;1833;42.718;23.270;2023-04-01T07:39:47;29.70;;;26.70;;
3633;SDS011;1833;42.718;23.270;2023-04-01T07:42:21;30.27;;;27.13;;
3633;SDS011;1833;42.718;23.270;2023-04-01T07:44:53;30.23;;;26.83;;
3633;SDS011;1833;42.718;23.270;2023-04-01T07:47:32;31.13;;;27.93;;
3633;SDS011;1833;42.718;23.270;2023-04-01T07:50:05;30.83;;;27.60;;
3633;SDS011;1833;42.718;23.270;2023-04-01T07:52:38;33.00;;;27.70;;
3633;SDS011;1833;42.718;23.270;2023-04-01T07:55:07;31.07;;;27.80;;
3633;SDS011;1833;42.718;23.270;2023-04-01T07:57:37;28.90;;;26.07;;
3633;SDS011;1833;42.718;23.270;2023-04-01T08:00:08;33.03;;;27.50;;
3633;SDS011;1833;42.718;23.270;2023-04-01T08:02:41;31.17;;;27.90;;
3633;SDS011;1833;42.718;23.270;2023-04-01T08:05:16;30.97;;;27.30;;
3633;SDS011;1833;42.718;23.270;2023-04-01T08:07:49;33.37;;;28.20;;
3633;SDS011;1833;42.718;23.270;2023-04-01T08:10:19;31.97;;;28.57;;
3633;SDS011;1833;42.718;23.270;2023-04-01T08:12:52;32.70;;;27.83;;
3633;SDS011;1833;42.718;23.270;2023-04-01T08:15:21;48.17;;;29.13;;
3633;SDS011;1833;42.718;23.270;2023-04-01T08:17:55;31.10;;;27.80;;
3633;SDS011;1833;42.718;23.270;2023-04-01T08:20:29;37.97;;;31.90;;
3633;SDS011;1833;42.718;23.270;2023-04-01T08:23:00;31.00;;;27.53;;
3633;SDS011;1833;42.718;23.270;2023-04-01T08:25:30;34.77;;;30.07;;
3633;SDS011;1833;42.718;23.270;2023-04-01T08:28:00;34.43;;;29.40;;
3633;SDS011;1833;42.718;23.270;2023-04-01T08:30:28;44.97;;;29.00;;
3633;SDS011;1833;42.718;23.270;2023-04-01T08:33:00;34.10;;;28.63;;
3633;SDS011;1833;42.718;23.270;2023-04-01T08:35:30;47.43;;;36.93;;
3633;SDS011;1833;42.718;23.270;2023-04-01T08:37:59;48.17;;;37.00;;
3633;SDS011;1833;42.718;23.270;2023-04-01T08:43:25;40.00;;;34.03;;
3633;SDS011;1833;42.718;23.270;2023-04-01T08:46:06;36.33;;;32.43;;
3633;SDS011;1833;42.718;23.270;2023-04-01T08:48:48;31.77;;;28.97;;
3633;SDS011;1833;42.718;23.270;2023-04-01T08:51:32;35.30;;;31.50;;
3633;SDS011;1833;42.718;23.270;2023-04-01T08:54:05;33.17;;;29.17;;
3633;SDS011;1833;42.718;23.270;2023-04-01T08:56:39;38.73;;;29.90;;
3633;SDS011;1833;42.718;23.270;2023-04-01T08:59:17;39.90;;;35.60;;
3633;SDS011;1833;42.718;23.270;2023-04-01T09:01:59;34.90;;;31.20;;
3633;SDS011;1833;42.718;23.270;2023-04-01T09:04:33;36.67;;;33.23;;
3633;SDS011;1833;42.718;23.270;2023-04-01T09:07:11;35.10;;;30.30;;
3633;SDS011;1833;42.718;23.270;2023-04-01T09:09:56;35.10;;;31.50;;
3633;SDS011;1833;42.718;23.270;2023-04-01T09:12:48;41.50;;;37.10;;
3633;SDS011;1833;42.718;23.270;2023-04-01T09:15:28;40.93;;;33.20;;
3633;SDS011;1833;42.718;23.270;2023-04-01T09:18:04;33.90;;;30.60;;
3633;SDS011;1833;42.718;23.270;2023-04-01T09:20:41;34.53;;;30.93;;
3633;SDS011;1833;42.718;23.270;2023-04-01T09:23:18;32.33;;;29.00;;
3633;SDS011;1833;42.718;23.270;2023-04-01T09:26:02;33.23;;;29.63;;
3633;SDS011;1833;42.718;23.270;2023-04-01T09:28:34;33.17;;;29.97;;
3633;SDS011;1833;42.718;23.270;2023-04-01T09:31:16;38.57;;;30.70;;
3633;SDS011;1833;42.718;23.270;2023-04-01T09:36:38;31.30;;;28.30;;
3633;SDS011;1833;42.718;23.270;2023-04-01T09:39:22;34.23;;;30.50;;
3633;SDS011;1833;42.718;23.270;2023-04-01T09:41:55;46.20;;;35.10;;
3633;SDS011;1833;42.718;23.270;2023-04-01T09:44:25;30.43;;;27.53;;
3633;SDS011;1833;42.718;23.270;2023-04-01T09:46:59;31.23;;;28.33;;
3633;SDS011;1833;42.718;23.270;2023-04-01T09:49:36;34.97;;;31.17;;
3633;SDS011;1833;42.718;23.270;2023-04-01T09:52:20;37.73;;;30.20;;
3633;SDS011;1833;42.718;23.270;2023-04-01T09:54:57;32.10;;;28.80;;
3633;SDS011;1833;42.718;23.270;2023-04-01T10:00:30;47.77;;;27.97;;
3633;SDS011;1833;42.718;23.270;2023-04-01T10:03:09;29.60;;;26.80;;
3633;SDS011;1833;42.718;23.270;2023-04-01T10:05:54;29.80;;;27.20;;
3633;SDS011;1833;42.718;23.270;2023-04-01T10:14:28;30.10;;;27.03;;
3633;SDS011;1833;42.718;23.270;2023-04-01T10:25:30;31.83;;;27.93;;
3633;SDS011;1833;42.718;23.270;2023-04-01T10:28:08;28.70;;;26.10;;
3633;SDS011;1833;42.718;23.270;2023-04-01T10:33:41;30.57;;;27.40;;
3633;SDS011;1833;42.718;23.270;2023-04-01T10:44:40;30.70;;;27.80;;
3633;SDS011;1833;42.718;23.270;2023-04-01T10:47:24;32.70;;;29.33;;
3633;SDS011;1833;42.718;23.270;2023-04-01T10:50:05;32.33;;;29.13;;
3633;SDS011;1833;42.718;23.270;2023-04-01T10:52:56;30.70;;;27.63;;
3633;SDS011;1833;42.718;23.270;2023-04-01T10:58:20;30.07;;;27.30;;
3633;SDS011;1833;42.718;23.270;2023-04-01T11:00:57;32.60;;;29.87;;
3633;SDS011;1833;42.718;23.270;2023-04-01T11:03:42;34.50;;;31.23;;
3633;SDS011;1833;42.718;23.270;2023-04-01T11:06:28;32.00;;;28.80;;
3633;SDS011;1833;42.718;23.270;2023-04-01T11:11:57;30.30;;;27.60;;
3633;SDS011;1833;42.718;23.270;2023-04-01T11:14:38;32.40;;;29.57;;
3633;SDS011;1833;42.718;23.270;2023-04-01T11:17:29;31.93;;;29.33;;
3633;SDS011;1833;42.718;23.270;2023-04-01T11:20:09;31.10;;;28.33;;
3633;SDS011;1833;42.718;23.270;2023-04-01T11:22:51;31.77;;;28.97;;
3633;SDS011;1833;42.718;23.270;2023-04-01T11:25:25;32.23;;;29.23;;
3633;SDS011;1833;42.718;23.270;2023-04-01T11:28:01;31.07;;;28.30;;
3633;SDS011;1833;42.718;23.270;2023-04-01T11:30:39;30.90;;;27.83;;
3633;SDS011;1833;42.718;23.270;2023-04-01T11:33:09;31.37;;;28.33;;
3633;SDS011;1833;42.718;23.270;2023-04-01T11:35:46;32.73;;;29.33;;
3633;SDS011;1833;42.718;23.270;2023-04-01T11:38:30;30.57;;;27.50;;
3633;SDS011;1833;42.718;23.270;2023-04-01T11:41:02;34.40;;;31.03;;
3633;SDS011;1833;42.718;23.270;2023-04-01T11:43:36;37.10;;;34.10;;
3633;SDS011;1833;42.718;23.270;2023-04-01T11:46:07;39.60;;;35.40;;
3633;SDS011;1833;42.718;23.270;2023-04-01T11:51:28;46.30;;;40.43;;
3633;SDS011;1833;42.718;23.270;2023-04-01T11:54:00;41.50;;;37.40;;
3633;SDS011;1833;42.718;23.270;2023-04-01T11:56:35;47.20;;;42.70;;
3633;SDS011;1833;42.718;23.270;2023-04-01T11:59:18;50.20;;;45.50;;
3633;SDS011;1833;42.718;23.270;2023-04-01T12:01:54;40.37;;;36.30;;
3633;SDS011;1833;42.718;23.270;2023-04-01T12:04:33;47.40;;;42.80;;
3633;SDS011;1833;42.718;23.270;2023-04-01T12:07:06;43.10;;;38.90;;
3633;SDS011;1833;42.718;23.270;2023-04-01T12:09:40;42.50;;;38.23;;
3633;SDS011;1833;42.718;23.270;2023-04-01T12:12:12;41.07;;;37.07;;
3633;SDS011;1833;42.718;23.270;2023-04-01T12:14:44;41.17;;;36.87;;
3633;SDS011;1833;42.718;23.270;2023-04-01T12:17:20;42.90;;;38.37;;
3633;SDS011;1833;42.718;23.270;2023-04-01T12:19:53;43.43;;;39.33;;
3633;SDS011;1833;42.718;23.270;2023-04-01T12:22:28;45.37;;;40.90;;
3633;SDS011;1833;42.718;23.270;2023-04-01T12:25:04;39.13;;;35.57;;
3633;SDS011;1833;42.718;23.270;2023-04-01T12:27:50;42.60;;;38.57;;
3633;SDS011;1833;42.718;23.270;2023-04-01T12:30:26;41.90;;;37.47;;
3633;SDS011;1833;42.718;23.270;2023-04-01T12:33:01;44.77;;;40.90;;
3633;SDS011;1833;42.718;23.270;2023-04-01T12:35:32;42.00;;;37.50;;
3633;SDS011;1833;42.718;23.270;2023-04-01T12:38:08;41.30;;;37.50;;
3633;SDS011;1833;42.718;23.270;2023-04-01T12:43:31;44.33;;;40.30;;
3633;SDS011;1833;42.718;23.270;2023-04-01T12:46:03;44.33;;;39.80;;
3633;SDS011;1833;42.718;23.270;2023-04-01T12:48:47;41.27;;;37.20;;
3633;SDS011;1833;42.718;23.270;2023-04-01T12:54:15;69.93;;;54.43;;
3633;SDS011;1833;42.718;23.270;2023-04-01T12:56:48;72.03;;;59.10;;
3633;SDS011;1833;42.718;23.270;2023-04-01T12:59:40;47.50;;;43.00;;
3633;SDS011;1833;42.718;23.270;2023-04-01T13:02:12;42.83;;;37.77;;
3633;SDS011;1833;42.718;23.270;2023-04-01T13:07:34;53.80;;;48.30;;
3633;SDS011;1833;42.718;23.270;2023-04-01T13:10:12;47.40;;;42.40;;
3633;SDS011;1833;42.718;23.270;2023-04-01T13:12:46;48.33;;;43.37;;
3633;SDS011;1833;42.718;23.270;2023-04-01T13:15:29;48.40;;;41.57;;
3633;SDS011;1833;42.718;23.270;2023-04-01T13:17:59;49.20;;;44.50;;
3633;SDS011;1833;42.718;23.270;2023-04-01T13:20:34;47.20;;;40.97;;
3633;SDS011;1833;42.718;23.270;2023-04-01T13:23:07;42.13;;;37.63;;
3633;SDS011;1833;42.718;23.270;2023-04-01T13:25:39;43.30;;;39.30;;
3633;SDS011;1833;42.718;23.270;2023-04-01T13:28:11;45.20;;;41.00;;
3633;SDS011;1833;42.718;23.270;2023-04-01T13:30:41;44.93;;;40.73;;
3633;SDS011;1833;42.718;23.270;2023-04-01T13:33:13;43.03;;;38.80;;
3633;SDS011;1833;42.718;23.270;2023-04-01T13:35:45;44.10;;;40.07;;
3633;SDS011;1833;42.718;23.270;2023-04-01T13:38:19;40.80;;;36.93;;
3633;SDS011;1833;42.718;23.270;2023-04-01T13:40:51;36.20;;;33.10;;
3633;SDS011;1833;42.718;23.270;2023-04-01T13:43:25;34.03;;;31.23;;
3633;SDS011;1833;42.718;23.270;2023-04-01T13:46:08;32.40;;;29.53;;
3633;SDS011;1833;42.718;23.270;2023-04-01T13:51:25;26.47;;;24.30;;
3633;SDS011;1833;42.718;23.270;2023-04-01T13:54:10;24.33;;;22.43;;
3633;SDS011;1833;42.718;23.270;2023-04-01T13:56:41;25.50;;;23.20;;
3633;SDS011;1833;42.718;23.270;2023-04-01T14:01:59;25.50;;;23.30;;
3633;SDS011;1833;42.718;23.270;2023-04-01T14:04:40;27.57;;;25.20;;
3633;SDS011;1833;42.718;23.270;2023-04-01T14:07:31;27.63;;;25.33;;
3633;SDS011;1833;42.718;23.270;2023-04-01T14:10:03;24.43;;;22.63;;
3633;SDS011;1833;42.718;23.270;2023-04-01T14:12:34;24.03;;;22.17;;
3633;SDS011;1833;42.718;23.270;2023-04-01T14:15:07;24.47;;;22.57;;
3633;SDS011;1833;42.718;23.270;2023-04-01T14:17:44;24.30;;;22.40;;
3633;SDS011;1833;42.718;23.270;2023-04-01T14:20:18;23.97;;;22.10;;
3633;SDS011;1833;42.718;23.270;2023-04-01T14:22:51;25.60;;;23.00;;
3633;SDS011;1833;42.718;23.270;2023-04-01T14:25:27;24.07;;;22.13;;
3633;SDS011;1833;42.718;23.270;2023-04-01T14:28:00;26.23;;;22.70;;
3633;SDS011;1833;42.718;23.270;2023-04-01T14:30:34;28.83;;;26.30;;
3633;SDS011;1833;42.718;23.270;2023-04-01T14:33:06;37.40;;;33.80;;
3633;SDS011;1833;42.718;23.270;2023-04-01T14:35:41;96.17;;;66.43;;
3633;SDS011;1833;42.718;23.270;2023-04-01T14:41:06;30.83;;;27.53;;
3633;SDS011;1833;42.718;23.270;2023-04-01T14:43:44;59.57;;;46.43;;
3633;SDS011;1833;42.718;23.270;2023-04-01T14:46:23;76.17;;;59.50;;
3633;SDS011;1833;42.718;23.270;2023-04-01T14:48:56;26.97;;;24.27;;
3633;SDS011;1833;42.718;23.270;2023-04-01T14:51:28;72.40;;;54.33;;
3633;SDS011;1833;42.718;23.270;2023-04-01T14:53:59;27.93;;;25.50;;
3633;SDS011;1833;42.718;23.270;2023-04-01T14:56:37;25.87;;;23.77;;
3633;SDS011;1833;42.718;23.270;2023-04-01T14:59:07;26.83;;;24.40;;
3633;SDS011;1833;42.718;23.270;2023-04-01T15:01:37;25.43;;;23.30;;
3633;SDS011;1833;42.718;23.270;2023-04-01T15:04:15;29.23;;;23.47;;
3633;SDS011;1833;42.718;23.270;2023-04-01T15:06:53;26.50;;;24.30;;
3633;SDS011;1833;42.718;23.270;2023-04-01T15:09:24;24.60;;;22.50;;
3633;SDS011;1833;42.718;23.270;2023-04-01T15:12:00;25.37;;;23.27;;
3633;SDS011;1833;42.718;23.270;2023-04-01T15:14:33;27.33;;;25.03;;
3633;SDS011;1833;42.718;23.270;2023-04-01T15:17:05;26.20;;;23.70;;
3633;SDS011;1833;42.718;23.270;2023-04-01T15:19:46;25.57;;;22.83;;
3633;SDS011;1833;42.718;23.270;2023-04-01T15:22:24;25.67;;;23.30;;
3633;SDS011;1833;42.718;23.270;2023-04-01T15:24:56;25.93;;;23.70;;
3633;SDS011;1833;42.718;23.270;2023-04-01T15:27:31;27.23;;;24.33;;
3633;SDS011;1833;42.718;23.270;2023-04-01T15:30:05;25.60;;;23.40;;
3633;SDS011;1833;42.718;23.270;2023-04-01T15:32:43;24.00;;;21.90;;
3633;SDS011;1833;42.718;23.270;2023-04-01T15:35:18;24.40;;;22.20;;
3633;SDS011;1833;42.718;23.270;2023-04-01T15:37:49;24.40;;;21.97;;
3633;SDS011;1833;42.718;23.270;2023-04-01T15:40:20;25.83;;;22.20;;
3633;SDS011;1833;42.718;23.270;2023-04-01T15:42:52;24.73;;;22.47;;
3633;SDS011;1833;42.718;23.270;2023-04-01T15:45:31;22.20;;;20.40;;
3633;SDS011;1833;42.718;23.270;2023-04-01T15:48:06;19.67;;;18.40;;
3633;SDS011;1833;42.718;23.270;2023-04-01T15:50:44;20.73;;;19.43;;
3633;SDS011;1833;42.718;23.270;2023-04-01T15:53:36;22.83;;;21.37;;
3633;SDS011;1833;42.718;23.270;2023-04-01T15:56:10;22.20;;;20.80;;
3633;SDS011;1833;42.718;23.270;2023-04-01T15:58:47;32.27;;;29.87;;
3633;SDS011;1833;42.718;23.270;2023-04-01T16:01:20;39.13;;;35.50;;
3633;SDS011;1833;42.718;23.270;2023-04-01T16:03:51;36.13;;;32.77;;
3633;SDS011;1833;42.718;23.270;2023-04-01T16:06:37;35.43;;;32.20;;
3633;SDS011;1833;42.718;23.270;2023-04-01T16:17:51;38.60;;;35.30;;